Time;durP1;ratioP1;P1;durP2;ratioP2;P2;SDS_P1;SDS_P2;PMS_P1;PMS_P2;Temp;Humidity;BMP_temperature;BMP_pressure;BME280_temperature;BME280_humidity;BME280_pressure;Samples;Min_cycle;Max_cycle;Signal;HPM_P1;HPM_P2
2022/06/05 00:00:31;;;;;;;;;;;25.00;49.40;;;;;;5074348;28;19915;-63
2022/06/05 00:03:07;;;;;;;;;;;25.00;49.50;;;;;;5074266;28;20288;-63
2022/06/05 00:05:34;;;;;;;;;;;24.90;49.40;;;;;;5073116;28;19915;-63
2022/06/05 00:08:05;;;;;;;;;;;25.00;49.50;;;;;;5073695;28;19916;-64
2022/06/05 00:10:36;;;;;;;;;;;24.90;50.10;;;;;;5072959;28;19912;-63
2022/06/05 00:13:05;;;;;;;;;;;24.90;49.30;;;;;;5074142;28;19909;-64
2022/06/05 00:15:30;;;;;;;;;;;24.90;49.30;;;;;;5074195;28;19908;-64
2022/06/05 00:17:56;;;;;;;;;;;24.90;49.30;;;;;;5073941;28;19978;-63
2022/06/05 00:20:22;;;;;;;;;;;24.90;49.30;;;;;;5074114;28;19909;-64
2022/06/05 00:22:48;;;;;;;;;;;24.90;49.20;;;;;;5074335;28;19920;-64
2022/06/05 00:25:13;;;;;;;;;;;25.00;49.20;;;;;;5073965;28;19908;-64
2022/06/05 00:27:42;;;;;;;;;;;25.00;49.20;;;;;;5074257;28;19909;-63
2022/06/05 00:30:12;;;;;;;;;;;25.00;49.10;;;;;;5073789;28;20595;-63
2022/06/05 00:32:38;;;;;;;;;;;25.00;49.10;;;;;;5072623;28;19924;-63
2022/06/05 00:35:05;;;;;;;;;;;25.00;49.10;;;;;;5072759;28;20003;-63
2022/06/05 00:37:43;;;;;;;;;;;25.00;49.00;;;;;;5073797;28;20001;-63
2022/06/05 00:40:08;;;;;;;;;;;25.00;49.10;;;;;;5072495;28;19908;-64
2022/06/05 00:42:34;;;;;;;;;;;24.90;48.90;;;;;;5073724;28;19908;-63
2022/06/05 00:45:01;;;;;;;;;;;24.90;48.90;;;;;;5073527;28;19944;-63
2022/06/05 00:47:28;;;;;;;;;;;25.00;49.00;;;;;;5072402;28;19974;-63
2022/06/05 00:49:56;;;;;;;;;;;25.00;49.00;;;;;;5072276;28;20376;-63
2022/06/05 00:52:22;;;;;;;;;;;25.00;49.10;;;;;;5073520;28;20445;-63
2022/06/05 00:54:47;;;;;;;;;;;24.90;49.00;;;;;;5072184;28;20382;-63
2022/06/05 00:57:13;;;;;;;;;;;24.90;48.90;;;;;;5073447;28;19908;-63
2022/06/05 00:59:38;;;;;;;;;;;24.90;49.10;;;;;;5072231;28;20419;-63
2022/06/05 01:02:04;;;;;;;;;;;25.10;49.20;;;;;;5072255;28;20335;-63
2022/06/05 01:04:31;;;;;;;;;;;24.90;49.00;;;;;;5073250;28;19916;-63
2022/06/05 01:06:56;;;;;;;;;;;24.90;49.00;;;;;;5073361;28;19908;-63
2022/06/05 01:09:22;;;;;;;;;;;24.90;49.00;;;;;;5073477;28;19970;-63
2022/06/05 01:12:16;;;;;;;;;;;24.90;49.20;;;;;;5073249;28;19999;-64
2022/06/05 01:14:44;;;;;;;;;;;24.90;49.20;;;;;;4985149;28;19917;-64
2022/06/05 01:17:22;;;;;;;;;;;24.90;49.00;;;;;;5073045;28;19927;-63
2022/06/05 01:19:51;;;;;;;;;;;24.90;49.20;;;;;;5073175;28;20326;-64
2022/06/05 01:22:31;;;;;;;;;;;24.90;49.40;;;;;;5072215;28;19912;-63
2022/06/05 01:25:06;;;;;;;;;;;24.90;49.30;;;;;;5072999;28;19916;-64
2022/06/05 01:27:33;;;;;;;;;;;24.90;50.10;;;;;;5073088;28;20292;-64
2022/06/05 01:29:59;;;;;;;;;;;24.90;49.40;;;;;;5071707;28;19916;-64
2022/06/05 01:32:27;;;;;;;;;;;24.90;49.40;;;;;;5055025;28;20287;-64
2022/06/05 01:34:53;;;;;;;;;;;24.80;49.40;;;;;;5073079;28;19908;-64
2022/06/05 01:37:38;;;;;;;;;;;24.80;49.50;;;;;;5071741;28;19967;-63
2022/06/05 01:40:05;;;;;;;;;;;24.80;49.50;;;;;;5072933;28;20376;-63
2022/06/05 01:42:32;;;;;;;;;;;24.80;49.50;;;;;;5071683;28;19965;-64
2022/06/05 01:44:59;;;;;;;;;;;24.80;49.50;;;;;;5071847;28;19912;-64
2022/06/05 01:47:25;;;;;;;;;;;24.80;49.60;;;;;;5071686;28;19953;-63
2022/06/05 01:49:55;;;;;;;;;;;24.70;49.40;;;;;;5071832;28;19919;-63
2022/06/05 01:52:22;;;;;;;;;;;24.70;49.30;;;;;;5075776;28;20445;-63
2022/06/05 01:54:52;;;;;;;;;;;24.70;49.50;;;;;;5075525;28;19920;-64
2022/06/05 01:57:18;;;;;;;;;;;24.70;49.70;;;;;;5075593;28;20074;-64
2022/06/05 01:59:50;;;;;;;;;;;24.70;49.40;;;;;;5076815;28;19956;-63
2022/06/05 02:02:18;;;;;;;;;;;24.70;49.40;;;;;;5075520;28;20011;-63
2022/06/05 02:04:46;;;;;;;;;;;24.60;49.40;;;;;;5075374;28;19914;-63
2022/06/05 02:07:13;;;;;;;;;;;24.70;49.50;;;;;;5075447;28;19939;-63
2022/06/05 02:09:41;;;;;;;;;;;24.60;49.50;;;;;;5076776;28;19924;-63
2022/06/05 02:12:07;;;;;;;;;;;24.60;49.60;;;;;;5075266;28;19940;-63
2022/06/05 02:14:32;;;;;;;;;;;24.60;49.40;;;;;;5075246;28;19948;-64
2022/06/05 02:16:58;;;;;;;;;;;24.60;49.40;;;;;;5074963;28;20272;-64
2022/06/05 02:19:23;;;;;;;;;;;24.60;49.60;;;;;;5076401;28;19912;-64
2022/06/05 02:21:49;;;;;;;;;;;24.60;49.40;;;;;;5075017;28;19939;-64
2022/06/05 02:24:14;;;;;;;;;;;24.50;49.30;;;;;;5075080;28;20354;-63
2022/06/05 02:26:41;;;;;;;;;;;24.50;49.30;;;;;;5076648;28;19915;-64
2022/06/05 02:29:07;;;;;;;;;;;24.60;49.30;;;;;;5076271;28;19966;-64
2022/06/05 02:31:52;;;;;;;;;;;24.60;49.30;;;;;;5076256;28;19953;-64
2022/06/05 02:34:31;;;;;;;;;;;24.50;49.30;;;;;;5076317;28;19931;-64
2022/06/05 02:36:56;;;;;;;;;;;24.50;49.20;;;;;;5074942;28;19909;-64
2022/06/05 02:39:22;;;;;;;;;;;24.50;49.30;;;;;;5076225;28;20440;-64
2022/06/05 02:41:48;;;;;;;;;;;24.50;49.20;;;;;;5075917;28;20438;-64
2022/06/05 02:44:30;;;;;;;;;;;24.50;49.10;;;;;;5075935;28;19908;-64
2022/06/05 02:47:14;;;;;;;;;;;24.50;49.00;;;;;;5075076;28;19915;-63
2022/06/05 02:49:45;;;;;;;;;;;24.50;49.10;;;;;;5074564;28;19962;-63
2022/06/05 02:52:11;;;;;;;;;;;24.50;49.20;;;;;;5074571;28;20220;-64
2022/06/05 02:54:37;;;;;;;;;;;24.50;49.10;;;;;;5074685;28;19915;-64
2022/06/05 02:57:03;;;;;;;;;;;24.50;49.20;;;;;;5075685;28;20016;-64
2022/06/05 02:59:28;;;;;;;;;;;24.50;49.00;;;;;;5075676;28;19908;-63
2022/06/05 03:04:38;;;;;;;;;;;24.50;49.10;;;;;;5075478;28;19920;-63
2022/06/05 03:07:04;;;;;;;;;;;24.40;49.00;;;;;;5075428;28;19908;-64
2022/06/05 03:09:29;;;;;;;;;;;24.40;49.20;;;;;;5075754;28;19919;-63
2022/06/05 03:11:55;;;;;;;;;;;24.40;49.00;;;;;;5075481;28;20426;-63
2022/06/05 03:14:20;;;;;;;;;;;24.50;49.10;;;;;;5075257;28;20418;-63
2022/06/05 03:16:46;;;;;;;;;;;24.50;48.90;;;;;;5075450;28;20400;-63
2022/06/05 03:19:11;;;;;;;;;;;24.40;48.90;;;;;;5075228;28;19916;-64
2022/06/05 03:21:37;;;;;;;;;;;24.40;48.80;;;;;;5075228;28;19915;-64
2022/06/05 03:24:03;;;;;;;;;;;24.40;48.90;;;;;;5075189;28;20360;-64
2022/06/05 03:26:28;;;;;;;;;;;24.40;48.90;;;;;;5075525;28;20446;-64
2022/06/05 03:28:54;;;;;;;;;;;24.40;49.50;;;;;;5074903;28;19908;-63
2022/06/05 03:31:19;;;;;;;;;;;24.40;48.90;;;;;;5075071;28;19908;-63
2022/06/05 03:33:45;;;;;;;;;;;24.40;48.90;;;;;;5075091;28;19915;-63
2022/06/05 03:36:11;;;;;;;;;;;24.40;48.90;;;;;;5074997;28;19908;-63
2022/06/05 03:38:36;;;;;;;;;;;24.40;49.00;;;;;;5075281;28;20025;-63
2022/06/05 03:41:02;;;;;;;;;;;24.40;49.00;;;;;;5073913;28;19909;-63
2022/06/05 03:43:27;;;;;;;;;;;24.30;48.90;;;;;;5074819;28;19916;-63
2022/06/05 03:46:19;;;;;;;;;;;24.30;48.90;;;;;;5074770;28;19908;-63
2022/06/05 03:48:45;;;;;;;;;;;24.40;48.90;;;;;;5070787;28;19959;-63
2022/06/05 03:51:14;;;;;;;;;;;24.30;48.90;;;;;;5074846;28;20333;-64
2022/06/05 03:53:40;;;;;;;;;;;24.30;48.90;;;;;;5074612;28;19913;-64
2022/06/05 03:56:09;;;;;;;;;;;24.30;48.90;;;;;;5074491;28;19915;-62
2022/06/05 03:58:35;;;;;;;;;;;24.30;49.00;;;;;;5073795;28;19920;-63
2022/06/05 04:01:00;;;;;;;;;;;24.30;49.00;;;;;;5073265;28;19908;-63
2022/06/05 04:03:26;;;;;;;;;;;24.30;49.00;;;;;;5074292;28;19908;-63
2022/06/05 04:05:51;;;;;;;;;;;24.30;49.10;;;;;;5073103;28;19954;-63
2022/06/05 04:08:17;;;;;;;;;;;24.20;49.00;;;;;;5080272;28;19908;-63
2022/06/05 04:10:42;;;;;;;;;;;24.20;49.10;;;;;;5094421;28;19912;-63
2022/06/05 04:13:08;;;;;;;;;;;24.20;49.10;;;;;;5093819;28;20012;-63
2022/06/05 04:15:37;;;;;;;;;;;24.20;49.10;;;;;;5093303;28;19908;-63
2022/06/05 04:18:02;;;;;;;;;;;24.10;49.10;;;;;;5094183;28;19928;-63
2022/06/05 04:20:28;;;;;;;;;;;24.10;49.00;;;;;;5094368;28;19916;-63
2022/06/05 04:22:53;;;;;;;;;;;24.20;49.00;;;;;;5094280;28;19961;-63
2022/06/05 04:25:19;;;;;;;;;;;24.20;49.00;;;;;;5094257;28;19981;-63
2022/06/05 04:27:44;;;;;;;;;;;24.20;49.00;;;;;;5094488;28;19908;-63
2022/06/05 04:30:10;;;;;;;;;;;24.20;49.00;;;;;;5094065;28;19916;-63
2022/06/05 04:32:35;;;;;;;;;;;24.10;49.00;;;;;;5094228;28;19909;-62
2022/06/05 04:35:01;;;;;;;;;;;24.20;49.20;;;;;;5094067;28;19961;-63
2022/06/05 04:37:26;;;;;;;;;;;24.10;49.20;;;;;;5094138;28;20390;-63
2022/06/05 04:39:52;;;;;;;;;;;24.10;49.10;;;;;;5073339;28;20011;-63
2022/06/05 04:42:17;;;;;;;;;;;24.10;49.10;;;;;;5073640;28;19912;-63
2022/06/05 04:44:43;;;;;;;;;;;24.10;49.10;;;;;;5072271;28;19909;-63
2022/06/05 04:47:08;;;;;;;;;;;24.10;49.10;;;;;;5073642;28;20276;-63
2022/06/05 04:49:35;;;;;;;;;;;24.10;49.00;;;;;;5072260;28;19912;-63
2022/06/05 04:52:01;;;;;;;;;;;24.10;48.90;;;;;;5073801;28;19915;-64
2022/06/05 04:54:27;;;;;;;;;;;24.10;48.90;;;;;;5072305;28;19909;-64
2022/06/05 04:56:52;;;;;;;;;;;24.10;49.00;;;;;;5073549;28;19908;-63
2022/06/05 04:59:18;;;;;;;;;;;24.10;49.00;;;;;;5073288;28;20449;-63
2022/06/05 05:01:43;;;;;;;;;;;24.10;49.00;;;;;;5073460;28;19930;-63
2022/06/05 05:04:10;;;;;;;;;;;24.10;49.00;;;;;;5072064;28;20371;-63
2022/06/05 05:06:36;;;;;;;;;;;24.10;49.00;;;;;;5073462;28;20388;-63
2022/06/05 05:09:02;;;;;;;;;;;24.10;49.00;;;;;;5073705;28;20011;-63
2022/06/05 05:11:27;;;;;;;;;;;24.10;49.00;;;;;;5073216;28;19909;-63
2022/06/05 05:13:53;;;;;;;;;;;24.10;49.00;;;;;;5073201;28;19908;-63
2022/06/05 05:16:18;;;;;;;;;;;24.10;49.10;;;;;;5073068;28;20007;-63
2022/06/05 05:18:44;;;;;;;;;;;24.10;49.10;;;;;;5073140;28;19915;-63
2022/06/05 05:21:10;;;;;;;;;;;24.10;48.90;;;;;;5073001;28;19909;-63
2022/06/05 05:23:35;;;;;;;;;;;24.10;49.00;;;;;;5071966;28;19958;-63
2022/06/05 05:26:05;;;;;;;;;;;24.10;49.00;;;;;;5071797;28;19912;-63
2022/06/05 05:28:30;;;;;;;;;;;24.10;49.00;;;;;;5073029;28;19916;-63
2022/06/05 05:30:55;;;;;;;;;;;24.10;49.00;;;;;;5072911;28;19916;-63
2022/06/05 05:33:21;;;;;;;;;;;24.10;49.10;;;;;;5072922;28;19998;-63
2022/06/05 05:35:46;;;;;;;;;;;24.10;49.00;;;;;;5073011;28;19909;-63
2022/06/05 05:38:12;;;;;;;;;;;24.10;49.00;;;;;;5073221;28;19908;-63
2022/06/05 05:43:21;;;;;;;;;;;24.10;49.00;;;;;;5072934;28;19923;-63
2022/06/05 05:45:49;;;;;;;;;;;24.10;48.90;;;;;;5072932;28;19913;-63
2022/06/05 05:48:14;;;;;;;;;;;24.10;49.00;;;;;;5073072;28;19931;-64
2022/06/05 05:50:42;;;;;;;;;;;24.00;49.00;;;;;;5072900;28;20357;-63
2022/06/05 05:53:07;;;;;;;;;;;24.10;49.00;;;;;;5071538;28;19944;-63
2022/06/05 05:55:33;;;;;;;;;;;24.00;49.00;;;;;;5073042;28;19948;-63
2022/06/05 05:57:58;;;;;;;;;;;24.00;49.00;;;;;;5071444;28;19935;-63
2022/06/05 06:00:24;;;;;;;;;;;24.10;49.10;;;;;;5072775;28;20365;-64
2022/06/05 06:02:49;;;;;;;;;;;24.00;49.00;;;;;;5072668;28;19909;-64
2022/06/05 06:05:15;;;;;;;;;;;24.00;49.00;;;;;;5072651;28;19909;-64
2022/06/05 06:07:41;;;;;;;;;;;24.00;49.00;;;;;;5073146;28;19999;-64
2022/06/05 06:10:07;;;;;;;;;;;24.00;49.10;;;;;;5072620;28;20494;-64
2022/06/05 06:12:33;;;;;;;;;;;24.00;49.00;;;;;;5071388;28;19909;-64
2022/06/05 06:14:58;;;;;;;;;;;24.00;49.10;;;;;;5072578;28;20283;-64
2022/06/05 06:17:24;;;;;;;;;;;24.00;49.10;;;;;;5072469;28;19916;-64
2022/06/05 06:19:49;;;;;;;;;;;24.00;49.10;;;;;;5072705;28;19914;-63
2022/06/05 06:22:15;;;;;;;;;;;24.00;49.20;;;;;;5072587;28;19934;-63
2022/06/05 06:24:40;;;;;;;;;;;24.00;49.20;;;;;;5071709;28;20348;-63
2022/06/05 06:27:06;;;;;;;;;;;24.00;49.40;;;;;;5072489;28;19916;-63
2022/06/05 06:29:31;;;;;;;;;;;24.00;49.20;;;;;;5072366;28;19917;-63
2022/06/05 06:31:57;;;;;;;;;;;23.90;49.30;;;;;;5072437;28;20295;-63
2022/06/05 06:34:23;;;;;;;;;;;23.90;49.30;;;;;;5072481;28;20350;-64
2022/06/05 06:36:48;;;;;;;;;;;23.80;49.30;;;;;;5072768;28;20337;-64
2022/06/05 06:39:14;;;;;;;;;;;23.80;49.40;;;;;;5076217;28;19909;-63
2022/06/05 06:41:39;;;;;;;;;;;23.80;49.40;;;;;;5076023;28;19999;-63
2022/06/05 06:44:05;;;;;;;;;;;23.80;49.60;;;;;;5074642;28;19909;-63
2022/06/05 06:46:30;;;;;;;;;;;23.80;49.40;;;;;;5075890;28;19950;-63
2022/06/05 06:48:56;;;;;;;;;;;23.80;49.60;;;;;;5075796;28;19908;-63
2022/06/05 06:51:21;;;;;;;;;;;23.80;49.60;;;;;;5075832;28;19913;-63
2022/06/05 06:53:46;;;;;;;;;;;23.80;49.50;;;;;;5075809;28;19916;-63
2022/06/05 06:56:13;;;;;;;;;;;23.90;49.40;;;;;;5075725;28;19944;-63
2022/06/05 06:58:39;;;;;;;;;;;23.90;49.20;;;;;;5075660;28;19920;-63
2022/06/05 07:01:04;;;;;;;;;;;23.90;49.30;;;;;;5075677;28;19908;-63
2022/06/05 07:03:30;;;;;;;;;;;24.00;49.30;;;;;;5074532;28;19915;-63
2022/06/05 07:05:56;;;;;;;;;;;24.00;49.40;;;;;;5075858;28;19908;-63
2022/06/05 07:08:21;;;;;;;;;;;24.00;49.20;;;;;;5075646;28;20012;-63
2022/06/05 07:10:47;;;;;;;;;;;24.00;49.20;;;;;;5074039;28;19982;-64
2022/06/05 07:13:12;;;;;;;;;;;24.00;49.00;;;;;;5074251;28;19912;-64
2022/06/05 07:15:38;;;;;;;;;;;24.00;49.00;;;;;;5075493;28;19985;-64
2022/06/05 07:18:04;;;;;;;;;;;24.00;48.90;;;;;;5073947;28;20008;-63
2022/06/05 07:20:37;;;;;;;;;;;24.10;49.00;;;;;;5075303;28;19908;-63
2022/06/05 07:23:02;;;;;;;;;;;24.10;49.00;;;;;;5074018;28;19944;-63
2022/06/05 07:25:28;;;;;;;;;;;24.10;48.80;;;;;;5075243;28;19920;-63
2022/06/05 07:27:54;;;;;;;;;;;24.10;48.80;;;;;;5073931;28;19909;-64
2022/06/05 07:30:19;;;;;;;;;;;24.10;48.80;;;;;;5073734;28;20368;-64
2022/06/05 07:32:47;;;;;;;;;;;24.10;48.80;;;;;;5074971;28;20016;-64
2022/06/05 07:35:12;;;;;;;;;;;24.10;48.70;;;;;;5074996;28;19915;-64
2022/06/05 07:37:38;;;;;;;;;;;24.20;48.80;;;;;;5075310;28;20384;-64
2022/06/05 07:40:04;;;;;;;;;;;24.20;48.80;;;;;;5074937;28;20372;-63
2022/06/05 07:42:29;;;;;;;;;;;24.20;48.80;;;;;;5073492;28;19908;-63
2022/06/05 07:44:55;;;;;;;;;;;24.20;48.90;;;;;;5074918;28;20280;-64
2022/06/05 07:47:20;;;;;;;;;;;24.20;48.90;;;;;;5074044;28;20289;-63
2022/06/05 07:49:46;;;;;;;;;;;24.20;49.00;;;;;;5074188;28;19962;-63
2022/06/05 07:54:55;;;;;;;;;;;24.20;49.00;;;;;;5074725;28;19915;-63
2022/06/05 07:57:21;;;;;;;;;;;24.30;48.90;;;;;;5073448;28;20291;-63
2022/06/05 07:59:47;;;;;;;;;;;24.30;48.70;;;;;;5073214;28;19912;-63
2022/06/05 08:02:17;;;;;;;;;;;24.30;48.60;;;;;;5073298;28;19908;-63
2022/06/05 08:04:42;;;;;;;;;;;24.30;48.70;;;;;;5074328;28;19915;-63
2022/06/05 08:07:10;;;;;;;;;;;24.30;48.90;;;;;;5074445;28;20022;-63
2022/06/05 08:09:36;;;;;;;;;;;24.30;48.70;;;;;;5074582;28;20414;-64
2022/06/05 08:12:01;;;;;;;;;;;24.30;48.50;;;;;;5072976;28;19944;-64
2022/06/05 08:14:27;;;;;;;;;;;24.40;48.80;;;;;;5074188;28;19909;-63
2022/06/05 08:16:52;;;;;;;;;;;24.40;48.90;;;;;;5072962;28;19924;-63
2022/06/05 08:19:19;;;;;;;;;;;24.30;48.70;;;;;;5074047;28;20428;-63
2022/06/05 08:21:46;;;;;;;;;;;24.30;48.60;;;;;;5072853;28;19915;-63
2022/06/05 08:24:11;;;;;;;;;;;24.30;48.90;;;;;;5074050;28;19915;-63
2022/06/05 08:26:37;;;;;;;;;;;24.30;48.70;;;;;;5074026;28;19909;-63
2022/06/05 08:29:02;;;;;;;;;;;24.30;48.80;;;;;;5072691;28;20045;-63
2022/06/05 08:31:29;;;;;;;;;;;24.30;48.90;;;;;;5072741;28;19919;-63
2022/06/05 08:33:56;;;;;;;;;;;24.40;49.00;;;;;;5073901;28;19909;-63
2022/06/05 08:36:21;;;;;;;;;;;24.40;48.90;;;;;;5073961;28;19908;-63
2022/06/05 08:41:37;;;;;;;;;;;24.40;48.40;;;;;;5042587;28;20276;-63
2022/06/05 08:44:14;;;;;;;;;;;24.50;48.60;;;;;;5073573;28;19952;-63
2022/06/05 08:46:41;;;;;;;;;;;24.50;48.70;;;;;;5073629;28;19909;-63
2022/06/05 08:49:11;;;;;;;;;;;24.40;48.60;;;;;;5072172;28;20300;-63
2022/06/05 08:51:40;;;;;;;;;;;24.40;48.10;;;;;;5073577;28;19915;-63
2022/06/05 08:54:06;;;;;;;;;;;24.40;48.10;;;;;;5073564;28;19915;-63
2022/06/05 08:56:34;;;;;;;;;;;24.50;48.50;;;;;;5073591;28;19916;-63
2022/06/05 08:59:05;;;;;;;;;;;24.50;48.70;;;;;;5071895;28;20322;-63
2022/06/05 09:01:30;;;;;;;;;;;24.50;48.70;;;;;;5073381;28;19962;-63
2022/06/05 09:03:56;;;;;;;;;;;24.50;48.70;;;;;;5073409;28;19908;-63
2022/06/05 09:06:35;;;;;;;;;;;24.50;48.70;;;;;;5073378;28;20021;-63
2022/06/05 09:09:00;;;;;;;;;;;24.50;48.70;;;;;;5072532;28;19908;-63
2022/06/05 09:11:26;;;;;;;;;;;24.60;48.70;;;;;;5072087;28;20437;-63
2022/06/05 09:13:55;;;;;;;;;;;24.60;48.70;;;;;;5073197;28;19915;-63
2022/06/05 09:16:24;;;;;;;;;;;24.70;48.70;;;;;;5071906;28;19924;-63
2022/06/05 09:18:50;;;;;;;;;;;24.70;48.70;;;;;;5072078;28;19904;-63
2022/06/05 09:21:30;;;;;;;;;;;24.70;48.70;;;;;;5071783;28;19916;-64
2022/06/05 09:23:59;;;;;;;;;;;24.70;48.60;;;;;;5071946;28;19969;-63
2022/06/05 09:26:39;;;;;;;;;;;24.70;48.60;;;;;;5071904;28;20357;-63
2022/06/05 09:29:13;;;;;;;;;;;24.70;48.60;;;;;;5071825;28;20455;-64
2022/06/05 09:31:57;;;;;;;;;;;24.70;48.70;;;;;;5071749;28;19912;-63
2022/06/05 09:34:33;;;;;;;;;;;24.70;48.70;;;;;;5073005;28;20384;-64
2022/06/05 09:37:11;;;;;;;;;;;24.70;48.50;;;;;;5072999;28;19928;-63
2022/06/05 09:39:47;;;;;;;;;;;24.70;48.30;;;;;;5072074;28;19951;-64
2022/06/05 09:42:31;;;;;;;;;;;24.80;48.40;;;;;;5054962;28;19908;-63
2022/06/05 09:45:27;;;;;;;;;;;24.80;48.40;;;;;;5072942;28;19909;-63
2022/06/05 09:48:14;;;;;;;;;;;24.80;48.40;;;;;;5002057;28;19910;-63
2022/06/05 09:50:40;;;;;;;;;;;24.80;48.40;;;;;;5071388;28;20371;-63
2022/06/05 09:53:05;;;;;;;;;;;24.80;48.40;;;;;;5071592;28;19915;-64
2022/06/05 09:55:30;;;;;;;;;;;24.70;48.30;;;;;;5072916;28;20012;-64
2022/06/05 09:58:25;;;;;;;;;;;24.70;48.30;;;;;;5072819;28;19909;-63
2022/06/05 10:00:51;;;;;;;;;;;24.80;48.40;;;;;;5071874;28;20372;-63
2022/06/05 10:03:20;;;;;;;;;;;24.80;48.40;;;;;;5072711;28;19908;-63
2022/06/05 10:06:03;;;;;;;;;;;24.90;48.50;;;;;;5071658;28;20010;-63
2022/06/05 10:08:30;;;;;;;;;;;24.80;48.40;;;;;;5079212;28;19912;-64
2022/06/05 10:10:57;;;;;;;;;;;24.80;48.40;;;;;;5091936;28;19935;-64
2022/06/05 10:13:38;;;;;;;;;;;24.80;48.40;;;;;;5095690;28;19908;-64
2022/06/05 10:16:10;;;;;;;;;;;24.80;48.40;;;;;;5096660;28;19908;-63
2022/06/05 10:18:40;;;;;;;;;;;24.90;48.50;;;;;;5095655;28;19912;-63
2022/06/05 10:21:07;;;;;;;;;;;24.90;48.50;;;;;;5096646;28;19931;-64
2022/06/05 10:23:52;;;;;;;;;;;24.90;48.50;;;;;;5095445;28;19908;-64
2022/06/05 10:26:31;;;;;;;;;;;24.90;48.50;;;;;;5064854;28;20288;-64
2022/06/05 10:29:07;;;;;;;;;;;24.90;48.50;;;;;;5095330;28;20303;-63
2022/06/05 10:31:32;;;;;;;;;;;24.90;48.50;;;;;;5096489;28;19916;-64
2022/06/05 10:34:17;;;;;;;;;;;24.90;48.50;;;;;;5095189;28;19919;-64
2022/06/05 10:36:52;;;;;;;;;;;25.00;48.60;;;;;;5096370;28;19908;-64
2022/06/05 10:39:36;;;;;;;;;;;24.90;48.50;;;;;;5080354;28;19908;-64
2022/06/05 10:42:25;;;;;;;;;;;24.90;48.40;;;;;;5075914;28;19913;-64
2022/06/05 10:45:14;;;;;;;;;;;24.90;48.40;;;;;;5038296;28;19915;-64
2022/06/05 10:47:41;;;;;;;;;;;25.00;48.60;;;;;;5074839;28;19913;-64
2022/06/05 10:50:25;;;;;;;;;;;25.00;48.60;;;;;;5075859;28;20326;-63
2022/06/05 10:52:50;;;;;;;;;;;25.00;48.60;;;;;;5075763;28;19909;-63
2022/06/05 10:55:30;;;;;;;;;;;25.00;48.60;;;;;;5075749;28;20340;-63
2022/06/05 10:58:02;;;;;;;;;;;25.00;48.60;;;;;;5074881;28;19915;-63
2022/06/05 11:00:28;;;;;;;;;;;25.00;48.60;;;;;;5075693;28;19962;-63
2022/06/05 11:02:57;;;;;;;;;;;25.00;48.60;;;;;;5074538;28;19909;-63
2022/06/05 11:05:28;;;;;;;;;;;25.00;48.60;;;;;;5075653;28;19966;-64
2022/06/05 11:07:55;;;;;;;;;;;25.10;48.20;;;;;;5076008;28;19919;-64
2022/06/05 11:16:05;;;;;;;;;;;25.10;48.40;;;;;;5075574;28;19973;-64
2022/06/05 11:18:52;;;;;;;;;;;25.10;48.40;;;;;;5074136;28;19935;-64
2022/06/05 11:21:17;;;;;;;;;;;25.10;48.60;;;;;;5074059;28;20001;-64
2022/06/05 11:23:44;;;;;;;;;;;25.10;48.40;;;;;;5073914;28;19944;-64
2022/06/05 11:26:23;;;;;;;;;;;25.10;48.60;;;;;;5075117;28;20001;-64
2022/06/05 11:29:07;;;;;;;;;;;25.10;48.70;;;;;;5075181;28;20339;-63
2022/06/05 11:31:37;;;;;;;;;;;25.20;48.70;;;;;;5075160;28;20061;-64
2022/06/05 11:34:21;;;;;;;;;;;25.20;48.70;;;;;;5073785;28;19944;-64
2022/06/05 11:36:48;;;;;;;;;;;25.20;48.70;;;;;;5072836;28;19921;-64
2022/06/05 11:39:17;;;;;;;;;;;25.10;48.70;;;;;;5067373;28;19955;-64
2022/06/05 11:41:43;;;;;;;;;;;25.20;48.70;;;;;;5063169;28;19916;-63
2022/06/05 11:44:21;;;;;;;;;;;25.20;48.70;;;;;;5069618;28;19916;-63
2022/06/05 11:46:49;;;;;;;;;;;25.30;48.60;;;;;;5067057;28;19987;-63
2022/06/05 11:49:24;;;;;;;;;;;25.30;48.30;;;;;;5065927;28;20129;-63
2022/06/05 11:51:55;;;;;;;;;;;25.30;48.70;;;;;;5065782;28;19916;-64
2022/06/05 11:54:21;;;;;;;;;;;25.30;48.30;;;;;;5066865;28;20272;-63
2022/06/05 11:56:55;;;;;;;;;;;25.30;48.70;;;;;;5071655;28;19920;-63
2022/06/05 11:59:21;;;;;;;;;;;25.40;48.80;;;;;;5060248;28;19963;-64
2022/06/05 12:01:48;;;;;;;;;;;25.40;48.80;;;;;;5064037;28;19963;-64
2022/06/05 12:04:25;;;;;;;;;;;25.40;48.80;;;;;;5086687;28;20295;-64
2022/06/05 12:06:52;;;;;;;;;;;25.40;48.80;;;;;;5073297;28;19915;-64
2022/06/05 12:09:19;;;;;;;;;;;25.40;48.00;;;;;;5073476;28;19909;-64
2022/06/05 12:12:15;;;;;;;;;;;25.40;48.50;;;;;;5073175;28;19908;-64
2022/06/05 12:14:52;;;;;;;;;;;25.50;47.80;;;;;;5057442;28;19908;-64
2022/06/05 12:17:17;;;;;;;;;;;25.50;48.20;;;;;;5056107;28;19916;-64
2022/06/05 12:19:49;;;;;;;;;;;25.50;48.50;;;;;;5074113;28;19915;-64
2022/06/05 12:22:18;;;;;;;;;;;25.50;47.80;;;;;;5072751;28;19908;-64
2022/06/05 12:24:59;;;;;;;;;;;25.60;48.00;;;;;;5072913;28;19908;-64
2022/06/05 12:27:26;;;;;;;;;;;25.60;48.10;;;;;;5074362;28;19909;-64
2022/06/05 12:29:59;;;;;;;;;;;25.60;48.00;;;;;;5072956;28;20007;-64
2022/06/05 12:32:50;;;;;;;;;;;25.60;48.40;;;;;;5072700;28;19908;-64
2022/06/05 12:35:17;;;;;;;;;;;25.60;48.30;;;;;;5042318;28;19920;-64
2022/06/05 12:37:44;;;;;;;;;;;25.60;47.20;;;;;;5072964;28;19915;-64
2022/06/05 12:40:29;;;;;;;;;;;25.70;47.00;;;;;;5072497;28;20287;-63
2022/06/05 12:42:55;;;;;;;;;;;25.70;47.60;;;;;;5072613;28;19908;-64
2022/06/05 12:45:23;;;;;;;;;;;25.70;47.00;;;;;;5072504;28;19909;-64
2022/06/05 12:48:00;;;;;;;;;;;25.80;47.80;;;;;;5073700;28;19919;-64
2022/06/05 12:50:35;;;;;;;;;;;25.80;48.00;;;;;;5072256;28;19912;-64
2022/06/05 12:53:08;;;;;;;;;;;25.70;48.00;;;;;;5055679;28;19993;-64
2022/06/05 12:55:35;;;;;;;;;;;25.80;47.70;;;;;;5073550;28;19908;-64
2022/06/05 12:58:02;;;;;;;;;;;25.80;47.40;;;;;;5072264;28;20394;-64
2022/06/05 13:00:30;;;;;;;;;;;25.80;47.70;;;;;;5073475;28;19908;-64
2022/06/05 13:03:10;;;;;;;;;;;25.80;47.60;;;;;;5073367;28;19915;-64
2022/06/05 13:05:55;;;;;;;;;;;25.80;47.90;;;;;;5072336;28;19964;-64
2022/06/05 13:08:24;;;;;;;;;;;25.90;47.70;;;;;;5072972;28;19915;-64
2022/06/05 13:11:13;;;;;;;;;;;25.90;47.80;;;;;;5072028;28;20292;-64
2022/06/05 13:13:46;;;;;;;;;;;25.90;47.80;;;;;;5062279;28;19944;-64
2022/06/05 13:16:17;;;;;;;;;;;25.90;48.00;;;;;;5071991;28;19987;-64
2022/06/05 13:18:50;;;;;;;;;;;25.90;48.20;;;;;;5072085;28;19909;-64
2022/06/05 13:21:17;;;;;;;;;;;25.90;48.20;;;;;;5071920;28;19966;-64
2022/06/05 13:23:54;;;;;;;;;;;25.90;48.30;;;;;;5071892;28;20003;-64
2022/06/05 13:26:38;;;;;;;;;;;25.90;48.30;;;;;;5071952;28;19920;-64
2022/06/05 13:29:13;;;;;;;;;;;25.90;48.30;;;;;;5073334;28;19908;-64
2022/06/05 13:31:47;;;;;;;;;;;25.90;48.10;;;;;;5073105;28;19917;-64
2022/06/05 13:34:17;;;;;;;;;;;25.90;47.70;;;;;;5071795;28;20274;-64
2022/06/05 13:36:48;;;;;;;;;;;25.90;48.00;;;;;;5071992;28;19959;-64
2022/06/05 13:39:13;;;;;;;;;;;25.90;47.80;;;;;;5078891;28;19908;-64
2022/06/05 13:41:50;;;;;;;;;;;26.00;48.00;;;;;;5073056;28;19924;-63
2022/06/05 13:44:17;;;;;;;;;;;25.90;47.50;;;;;;5071743;28;19909;-64
2022/06/05 13:46:56;;;;;;;;;;;25.90;47.70;;;;;;5074801;28;19908;-64
2022/06/05 13:49:31;;;;;;;;;;;25.90;47.70;;;;;;5077221;28;19909;-64
2022/06/05 13:52:17;;;;;;;;;;;25.90;47.80;;;;;;5075705;28;19916;-64
2022/06/05 13:54:54;;;;;;;;;;;26.00;47.60;;;;;;5035873;28;20364;-64
2022/06/05 13:57:22;;;;;;;;;;;26.00;47.90;;;;;;5076874;28;20003;-64
2022/06/05 13:59:48;;;;;;;;;;;26.00;47.90;;;;;;5075583;28;19909;-64
2022/06/05 14:02:20;;;;;;;;;;;26.00;48.10;;;;;;5075657;28;20391;-64
2022/06/05 14:04:56;;;;;;;;;;;26.00;48.10;;;;;;5076729;28;19908;-64
2022/06/05 14:07:22;;;;;;;;;;;26.00;48.00;;;;;;5075585;28;19954;-64
2022/06/05 14:09:50;;;;;;;;;;;26.00;48.00;;;;;;5075774;28;19912;-64
2022/06/05 14:12:29;;;;;;;;;;;26.00;48.10;;;;;;5076565;28;20352;-64
2022/06/05 14:14:54;;;;;;;;;;;26.00;48.10;;;;;;5076633;28;19908;-64
2022/06/05 14:17:26;;;;;;;;;;;26.00;48.00;;;;;;5076334;28;19927;-64
2022/06/05 14:19:55;;;;;;;;;;;26.00;48.00;;;;;;5076476;28;19915;-64
2022/06/05 14:22:22;;;;;;;;;;;26.00;48.00;;;;;;5075310;28;19912;-64
2022/06/05 14:24:47;;;;;;;;;;;26.00;48.00;;;;;;5058382;28;19908;-64
2022/06/05 14:27:16;;;;;;;;;;;26.10;48.00;;;;;;5076255;28;19931;-63
2022/06/05 14:29:47;;;;;;;;;;;26.10;48.10;;;;;;5074994;28;19923;-63
2022/06/05 14:32:26;;;;;;;;;;;26.10;48.00;;;;;;5075350;28;19912;-64
2022/06/05 14:35:08;;;;;;;;;;;26.10;48.00;;;;;;5076141;28;19908;-64
2022/06/05 14:37:34;;;;;;;;;;;26.10;48.00;;;;;;5076270;28;19908;-64
2022/06/05 14:40:00;;;;;;;;;;;26.00;48.10;;;;;;5058395;28;19912;-64
2022/06/05 14:42:26;;;;;;;;;;;26.00;48.10;;;;;;5076035;28;20368;-64
2022/06/05 14:45:06;;;;;;;;;;;26.00;48.00;;;;;;5091697;28;19958;-63